sensor_id;sensor_type;location;lat;lon;timestamp;P1;durP1;ratioP1;P2;durP2;ratioP2
45326;SDS011;31062;49.678;24.560;2022-07-23T00:02:08;8.45;;;5.30;;
45326;SDS011;31062;49.678;24.560;2022-07-23T00:04:54;7.20;;;4.97;;
45326;SDS011;31062;49.678;24.560;2022-07-23T00:07:39;11.50;;;5.60;;
45326;SDS011;31062;49.678;24.560;2022-07-23T00:10:25;10.57;;;5.97;;
45326;SDS011;31062;49.678;24.560;2022-07-23T00:13:10;9.45;;;6.25;;
45326;SDS011;31062;49.678;24.560;2022-07-23T00:15:55;9.02;;;5.22;;
45326;SDS011;31062;49.678;24.560;2022-07-23T00:18:40;6.05;;;5.40;;
45326;SDS011;31062;49.678;24.560;2022-07-23T00:21:26;7.22;;;5.95;;
45326;SDS011;31062;49.678;24.560;2022-07-23T00:24:12;6.97;;;5.40;;
45326;SDS011;31062;49.678;24.560;2022-07-23T00:26:57;8.00;;;5.38;;
45326;SDS011;31062;49.678;24.560;2022-07-23T00:29:42;7.20;;;5.53;;
45326;SDS011;31062;49.678;24.560;2022-07-23T00:32:28;6.15;;;5.28;;
45326;SDS011;31062;49.678;24.560;2022-07-23T00:35:34;13.35;;;4.88;;
45326;SDS011;31062;49.678;24.560;2022-07-23T00:38:21;10.00;;;5.28;;
45326;SDS011;31062;49.678;24.560;2022-07-23T00:41:07;9.98;;;4.82;;
45326;SDS011;31062;49.678;24.560;2022-07-23T00:43:52;8.82;;;5.45;;
45326;SDS011;31062;49.678;24.560;2022-07-23T00:46:38;11.25;;;5.85;;
45326;SDS011;31062;49.678;24.560;2022-07-23T00:49:24;11.68;;;5.38;;
45326;SDS011;31062;49.678;24.560;2022-07-23T00:52:12;10.35;;;5.20;;
45326;SDS011;31062;49.678;24.560;2022-07-23T00:54:57;9.00;;;4.72;;
45326;SDS011;31062;49.678;24.560;2022-07-23T00:57:43;9.35;;;5.55;;
45326;SDS011;31062;49.678;24.560;2022-07-23T01:00:29;11.32;;;5.47;;
45326;SDS011;31062;49.678;24.560;2022-07-23T01:03:14;11.95;;;5.97;;
45326;SDS011;31062;49.678;24.560;2022-07-23T01:06:00;6.05;;;4.80;;
45326;SDS011;31062;49.678;24.560;2022-07-23T01:08:45;11.88;;;4.80;;
45326;SDS011;31062;49.678;24.560;2022-07-23T01:11:32;9.55;;;4.78;;
45326;SDS011;31062;49.678;24.560;2022-07-23T01:14:18;8.95;;;4.97;;
45326;SDS011;31062;49.678;24.560;2022-07-23T01:17:04;16.70;;;4.78;;
45326;SDS011;31062;49.678;24.560;2022-07-23T01:19:50;5.93;;;4.78;;
45326;SDS011;31062;49.678;24.560;2022-07-23T01:22:35;8.50;;;4.60;;
45326;SDS011;31062;49.678;24.560;2022-07-23T01:25:21;9.02;;;4.80;;
45326;SDS011;31062;49.678;24.560;2022-07-23T01:28:14;12.95;;;4.72;;
45326;SDS011;31062;49.678;24.560;2022-07-23T01:30:59;6.00;;;4.35;;
45326;SDS011;31062;49.678;24.560;2022-07-23T01:33:49;9.60;;;4.97;;
45326;SDS011;31062;49.678;24.560;2022-07-23T01:36:35;11.50;;;4.70;;
45326;SDS011;31062;49.678;24.560;2022-07-23T01:39:21;7.65;;;4.25;;
45326;SDS011;31062;49.678;24.560;2022-07-23T01:42:09;10.55;;;4.22;;
45326;SDS011;31062;49.678;24.560;2022-07-23T01:44:55;11.63;;;5.00;;
45326;SDS011;31062;49.678;24.560;2022-07-23T01:47:40;5.25;;;3.78;;
45326;SDS011;31062;49.678;24.560;2022-07-23T01:50:25;6.53;;;4.32;;
45326;SDS011;31062;49.678;24.560;2022-07-23T01:53:29;14.52;;;4.45;;
45326;SDS011;31062;49.678;24.560;2022-07-23T01:56:16;6.38;;;3.67;;
45326;SDS011;31062;49.678;24.560;2022-07-23T01:59:01;6.78;;;3.78;;
45326;SDS011;31062;49.678;24.560;2022-07-23T02:01:47;6.45;;;4.10;;
45326;SDS011;31062;49.678;24.560;2022-07-23T02:04:36;6.80;;;4.25;;
45326;SDS011;31062;49.678;24.560;2022-07-23T02:07:22;11.13;;;4.03;;
45326;SDS011;31062;49.678;24.560;2022-07-23T02:10:09;5.57;;;4.28;;
45326;SDS011;31062;49.678;24.560;2022-07-23T02:12:55;9.25;;;4.63;;
45326;SDS011;31062;49.678;24.560;2022-07-23T02:15:41;10.23;;;4.45;;
45326;SDS011;31062;49.678;24.560;2022-07-23T02:18:26;8.00;;;4.07;;
45326;SDS011;31062;49.678;24.560;2022-07-23T02:21:12;8.60;;;4.20;;
45326;SDS011;31062;49.678;24.560;2022-07-23T02:23:58;6.97;;;4.50;;
45326;SDS011;31062;49.678;24.560;2022-07-23T02:26:43;7.03;;;4.53;;
45326;SDS011;31062;49.678;24.560;2022-07-23T02:29:29;7.05;;;3.88;;
45326;SDS011;31062;49.678;24.560;2022-07-23T02:32:15;5.95;;;3.97;;
45326;SDS011;31062;49.678;24.560;2022-07-23T02:35:02;9.80;;;5.25;;
45326;SDS011;31062;49.678;24.560;2022-07-23T02:37:49;9.55;;;4.60;;
45326;SDS011;31062;49.678;24.560;2022-07-23T02:40:35;9.13;;;4.32;;
45326;SDS011;31062;49.678;24.560;2022-07-23T02:43:20;10.35;;;4.72;;
45326;SDS011;31062;49.678;24.560;2022-07-23T02:46:07;7.43;;;4.75;;
45326;SDS011;31062;49.678;24.560;2022-07-23T02:48:53;14.00;;;4.20;;
45326;SDS011;31062;49.678;24.560;2022-07-23T02:51:39;7.30;;;3.97;;
45326;SDS011;31062;49.678;24.560;2022-07-23T02:54:25;8.43;;;4.05;;
45326;SDS011;31062;49.678;24.560;2022-07-23T02:57:10;12.00;;;4.57;;
45326;SDS011;31062;49.678;24.560;2022-07-23T02:59:56;4.40;;;3.75;;
45326;SDS011;31062;49.678;24.560;2022-07-23T03:02:41;10.05;;;4.43;;
45326;SDS011;31062;49.678;24.560;2022-07-23T03:05:27;5.18;;;4.47;;
45326;SDS011;31062;49.678;24.560;2022-07-23T03:08:12;11.27;;;4.43;;
45326;SDS011;31062;49.678;24.560;2022-07-23T03:11:01;6.47;;;4.18;;
45326;SDS011;31062;49.678;24.560;2022-07-23T03:13:46;15.40;;;5.95;;
45326;SDS011;31062;49.678;24.560;2022-07-23T03:16:32;7.03;;;4.50;;
45326;SDS011;31062;49.678;24.560;2022-07-23T03:19:17;9.65;;;4.35;;
45326;SDS011;31062;49.678;24.560;2022-07-23T03:22:03;7.63;;;4.68;;
45326;SDS011;31062;49.678;24.560;2022-07-23T03:24:48;7.47;;;3.75;;
45326;SDS011;31062;49.678;24.560;2022-07-23T03:27:51;8.52;;;3.90;;
45326;SDS011;31062;49.678;24.560;2022-07-23T03:30:36;10.52;;;4.43;;
45326;SDS011;31062;49.678;24.560;2022-07-23T03:33:21;10.10;;;5.82;;
45326;SDS011;31062;49.678;24.560;2022-07-23T03:36:08;9.25;;;5.28;;
45326;SDS011;31062;49.678;24.560;2022-07-23T03:38:58;11.18;;;5.18;;
45326;SDS011;31062;49.678;24.560;2022-07-23T03:41:46;10.60;;;4.82;;
45326;SDS011;31062;49.678;24.560;2022-07-23T03:44:31;13.20;;;4.97;;
45326;SDS011;31062;49.678;24.560;2022-07-23T03:47:17;11.18;;;5.25;;
45326;SDS011;31062;49.678;24.560;2022-07-23T03:50:07;9.57;;;4.57;;
45326;SDS011;31062;49.678;24.560;2022-07-23T03:52:52;14.43;;;4.70;;
45326;SDS011;31062;49.678;24.560;2022-07-23T03:55:39;12.68;;;4.75;;
45326;SDS011;31062;49.678;24.560;2022-07-23T03:58:24;14.35;;;4.93;;
45326;SDS011;31062;49.678;24.560;2022-07-23T04:01:10;16.88;;;5.97;;
45326;SDS011;31062;49.678;24.560;2022-07-23T04:03:57;20.13;;;5.15;;
45326;SDS011;31062;49.678;24.560;2022-07-23T04:06:42;9.57;;;5.07;;
45326;SDS011;31062;49.678;24.560;2022-07-23T04:09:28;6.15;;;5.28;;
45326;SDS011;31062;49.678;24.560;2022-07-23T04:12:13;8.02;;;4.68;;
45326;SDS011;31062;49.678;24.560;2022-07-23T04:14:59;14.93;;;5.32;;
45326;SDS011;31062;49.678;24.560;2022-07-23T04:17:45;5.60;;;4.75;;
45326;SDS011;31062;49.678;24.560;2022-07-23T04:20:34;9.93;;;4.93;;
45326;SDS011;31062;49.678;24.560;2022-07-23T04:23:25;10.77;;;4.80;;
45326;SDS011;31062;49.678;24.560;2022-07-23T04:26:10;15.27;;;5.40;;
45326;SDS011;31062;49.678;24.560;2022-07-23T04:29:03;11.68;;;5.22;;
45326;SDS011;31062;49.678;24.560;2022-07-23T04:31:50;9.25;;;5.05;;
45326;SDS011;31062;49.678;24.560;2022-07-23T04:34:35;13.10;;;4.88;;
45326;SDS011;31062;49.678;24.560;2022-07-23T04:37:21;10.15;;;4.75;;
45326;SDS011;31062;49.678;24.560;2022-07-23T04:40:06;17.00;;;5.43;;
45326;SDS011;31062;49.678;24.560;2022-07-23T04:42:53;15.23;;;6.38;;
45326;SDS011;31062;49.678;24.560;2022-07-23T04:45:39;6.15;;;5.22;;
45326;SDS011;31062;49.678;24.560;2022-07-23T04:48:24;16.30;;;5.40;;
45326;SDS011;31062;49.678;24.560;2022-07-23T04:51:17;10.02;;;4.88;;
45326;SDS011;31062;49.678;24.560;2022-07-23T04:54:03;9.63;;;4.68;;
45326;SDS011;31062;49.678;24.560;2022-07-23T04:56:49;11.70;;;4.50;;
45326;SDS011;31062;49.678;24.560;2022-07-23T04:59:35;16.67;;;5.47;;
45326;SDS011;31062;49.678;24.560;2022-07-23T05:02:22;9.50;;;5.03;;
45326;SDS011;31062;49.678;24.560;2022-07-23T05:05:07;9.98;;;4.75;;
45326;SDS011;31062;49.678;24.560;2022-07-23T05:07:53;6.40;;;4.65;;
45326;SDS011;31062;49.678;24.560;2022-07-23T05:10:39;14.20;;;5.10;;
45326;SDS011;31062;49.678;24.560;2022-07-23T05:13:24;6.22;;;4.13;;
45326;SDS011;31062;49.678;24.560;2022-07-23T05:16:11;5.00;;;4.30;;
45326;SDS011;31062;49.678;24.560;2022-07-23T05:18:57;18.33;;;4.85;;
45326;SDS011;31062;49.678;24.560;2022-07-23T05:21:43;10.60;;;4.70;;
45326;SDS011;31062;49.678;24.560;2022-07-23T05:24:29;12.85;;;4.75;;
45326;SDS011;31062;49.678;24.560;2022-07-23T05:27:15;9.63;;;4.20;;
45326;SDS011;31062;49.678;24.560;2022-07-23T05:30:00;8.25;;;4.38;;
45326;SDS011;31062;49.678;24.560;2022-07-23T05:32:48;12.20;;;4.72;;
45326;SDS011;31062;49.678;24.560;2022-07-23T05:35:35;8.38;;;4.22;;
45326;SDS011;31062;49.678;24.560;2022-07-23T05:38:41;13.95;;;4.32;;
45326;SDS011;31062;49.678;24.560;2022-07-23T05:41:26;9.25;;;4.55;;
45326;SDS011;31062;49.678;24.560;2022-07-23T05:44:12;8.35;;;4.25;;
45326;SDS011;31062;49.678;24.560;2022-07-23T05:47:01;11.10;;;4.10;;
45326;SDS011;31062;49.678;24.560;2022-07-23T05:49:47;7.35;;;4.32;;
45326;SDS011;31062;49.678;24.560;2022-07-23T05:52:45;16.02;;;4.47;;
45326;SDS011;31062;49.678;24.560;2022-07-23T05:55:51;13.00;;;4.15;;
45326;SDS011;31062;49.678;24.560;2022-07-23T05:58:37;20.90;;;5.15;;
45326;SDS011;31062;49.678;24.560;2022-07-23T06:01:22;12.35;;;4.80;;
45326;SDS011;31062;49.678;24.560;2022-07-23T06:04:22;7.05;;;5.00;;
45326;SDS011;31062;49.678;24.560;2022-07-23T06:07:25;18.85;;;4.75;;
45326;SDS011;31062;49.678;24.560;2022-07-23T06:10:11;9.68;;;4.78;;
45326;SDS011;31062;49.678;24.560;2022-07-23T06:12:56;13.35;;;4.65;;
45326;SDS011;31062;49.678;24.560;2022-07-23T06:15:47;14.23;;;5.63;;
45326;SDS011;31062;49.678;24.560;2022-07-23T06:18:33;8.18;;;4.30;;
45326;SDS011;31062;49.678;24.560;2022-07-23T06:21:18;8.75;;;4.22;;
45326;SDS011;31062;49.678;24.560;2022-07-23T06:24:24;9.45;;;4.85;;
45326;SDS011;31062;49.678;24.560;2022-07-23T06:27:10;10.82;;;4.68;;
45326;SDS011;31062;49.678;24.560;2022-07-23T06:29:56;13.20;;;5.22;;
45326;SDS011;31062;49.678;24.560;2022-07-23T06:32:42;12.88;;;5.30;;
45326;SDS011;31062;49.678;24.560;2022-07-23T06:35:27;8.50;;;4.72;;
45326;SDS011;31062;49.678;24.560;2022-07-23T06:38:13;11.50;;;4.43;;
45326;SDS011;31062;49.678;24.560;2022-07-23T06:40:59;10.85;;;4.43;;
45326;SDS011;31062;49.678;24.560;2022-07-23T06:43:45;11.93;;;5.32;;
45326;SDS011;31062;49.678;24.560;2022-07-23T06:46:33;11.32;;;4.90;;
45326;SDS011;31062;49.678;24.560;2022-07-23T06:49:18;18.70;;;5.45;;
45326;SDS011;31062;49.678;24.560;2022-07-23T06:52:04;15.13;;;5.90;;
45326;SDS011;31062;49.678;24.560;2022-07-23T06:54:50;8.27;;;4.72;;
45326;SDS011;31062;49.678;24.560;2022-07-23T06:57:36;7.65;;;4.97;;
45326;SDS011;31062;49.678;24.560;2022-07-23T07:00:23;11.35;;;4.97;;
45326;SDS011;31062;49.678;24.560;2022-07-23T07:03:11;15.38;;;5.07;;
45326;SDS011;31062;49.678;24.560;2022-07-23T07:05:56;12.63;;;5.15;;
45326;SDS011;31062;49.678;24.560;2022-07-23T07:08:42;8.93;;;5.45;;
45326;SDS011;31062;49.678;24.560;2022-07-23T07:11:28;11.15;;;4.78;;
45326;SDS011;31062;49.678;24.560;2022-07-23T07:14:14;6.82;;;4.97;;
45326;SDS011;31062;49.678;24.560;2022-07-23T07:16:59;11.35;;;5.07;;
45326;SDS011;31062;49.678;24.560;2022-07-23T07:19:44;10.20;;;5.25;;
45326;SDS011;31062;49.678;24.560;2022-07-23T07:22:30;11.32;;;4.60;;
45326;SDS011;31062;49.678;24.560;2022-07-23T07:25:15;15.63;;;5.15;;
45326;SDS011;31062;49.678;24.560;2022-07-23T07:28:00;9.10;;;5.10;;
45326;SDS011;31062;49.678;24.560;2022-07-23T07:30:46;19.08;;;4.45;;
45326;SDS011;31062;49.678;24.560;2022-07-23T07:33:31;12.68;;;4.93;;
45326;SDS011;31062;49.678;24.560;2022-07-23T07:36:16;9.90;;;4.55;;
45326;SDS011;31062;49.678;24.560;2022-07-23T07:39:04;15.68;;;6.32;;
45326;SDS011;31062;49.678;24.560;2022-07-23T07:41:50;18.55;;;5.35;;
45326;SDS011;31062;49.678;24.560;2022-07-23T07:44:36;10.90;;;4.30;;
45326;SDS011;31062;49.678;24.560;2022-07-23T07:47:22;8.18;;;4.18;;
45326;SDS011;31062;49.678;24.560;2022-07-23T07:50:07;10.07;;;4.53;;
45326;SDS011;31062;49.678;24.560;2022-07-23T07:52:53;8.75;;;4.70;;
45326;SDS011;31062;49.678;24.560;2022-07-23T07:55:39;11.43;;;4.72;;
45326;SDS011;31062;49.678;24.560;2022-07-23T07:58:24;9.35;;;5.18;;
45326;SDS011;31062;49.678;24.560;2022-07-23T08:01:09;8.50;;;4.53;;
45326;SDS011;31062;49.678;24.560;2022-07-23T08:03:55;12.20;;;4.90;;
45326;SDS011;31062;49.678;24.560;2022-07-23T08:06:41;11.68;;;4.10;;
45326;SDS011;31062;49.678;24.560;2022-07-23T08:09:26;12.80;;;4.82;;
45326;SDS011;31062;49.678;24.560;2022-07-23T08:12:11;12.63;;;4.45;;
45326;SDS011;31062;49.678;24.560;2022-07-23T08:14:57;7.78;;;4.93;;
45326;SDS011;31062;49.678;24.560;2022-07-23T08:17:43;11.43;;;4.40;;
45326;SDS011;31062;49.678;24.560;2022-07-23T08:20:30;15.70;;;4.57;;
45326;SDS011;31062;49.678;24.560;2022-07-23T08:23:15;11.48;;;6.00;;
45326;SDS011;31062;49.678;24.560;2022-07-23T08:26:04;8.27;;;4.50;;
45326;SDS011;31062;49.678;24.560;2022-07-23T08:28:49;10.15;;;4.45;;
45326;SDS011;31062;49.678;24.560;2022-07-23T08:31:35;9.73;;;4.70;;
45326;SDS011;31062;49.678;24.560;2022-07-23T08:34:20;10.05;;;4.90;;
45326;SDS011;31062;49.678;24.560;2022-07-23T08:37:06;15.50;;;5.25;;
45326;SDS011;31062;49.678;24.560;2022-07-23T08:39:51;11.55;;;4.60;;
45326;SDS011;31062;49.678;24.560;2022-07-23T08:42:36;10.57;;;5.20;;
45326;SDS011;31062;49.678;24.560;2022-07-23T08:45:23;11.75;;;4.75;;
45326;SDS011;31062;49.678;24.560;2022-07-23T08:51:06;14.82;;;5.22;;
45326;SDS011;31062;49.678;24.560;2022-07-23T08:53:52;10.82;;;5.10;;
45326;SDS011;31062;49.678;24.560;2022-07-23T08:56:38;8.65;;;4.80;;
45326;SDS011;31062;49.678;24.560;2022-07-23T08:59:24;11.02;;;5.20;;
45326;SDS011;31062;49.678;24.560;2022-07-23T09:02:12;12.73;;;4.95;;
45326;SDS011;31062;49.678;24.560;2022-07-23T09:04:58;10.85;;;5.10;;
45326;SDS011;31062;49.678;24.560;2022-07-23T09:08:03;9.32;;;4.90;;
45326;SDS011;31062;49.678;24.560;2022-07-23T09:11:00;12.43;;;4.80;;
45326;SDS011;31062;49.678;24.560;2022-07-23T09:13:49;11.18;;;5.32;;
45326;SDS011;31062;49.678;24.560;2022-07-23T09:19:27;11.32;;;4.93;;
45326;SDS011;31062;49.678;24.560;2022-07-23T09:22:16;9.00;;;5.57;;
45326;SDS011;31062;49.678;24.560;2022-07-23T09:25:20;11.95;;;5.50;;
45326;SDS011;31062;49.678;24.560;2022-07-23T09:28:05;6.43;;;5.65;;
45326;SDS011;31062;49.678;24.560;2022-07-23T09:30:52;11.50;;;5.88;;
45326;SDS011;31062;49.678;24.560;2022-07-23T09:33:38;12.13;;;5.68;;
45326;SDS011;31062;49.678;24.560;2022-07-23T09:36:27;10.25;;;5.85;;
45326;SDS011;31062;49.678;24.560;2022-07-23T09:39:14;10.85;;;5.93;;
45326;SDS011;31062;49.678;24.560;2022-07-23T09:42:17;9.95;;;5.68;;
45326;SDS011;31062;49.678;24.560;2022-07-23T09:45:04;12.25;;;5.25;;
45326;SDS011;31062;49.678;24.560;2022-07-23T09:51:11;8.15;;;4.88;;
45326;SDS011;31062;49.678;24.560;2022-07-23T09:53:58;10.27;;;6.45;;
45326;SDS011;31062;49.678;24.560;2022-07-23T09:56:44;9.90;;;5.50;;
45326;SDS011;31062;49.678;24.560;2022-07-23T09:59:32;6.47;;;5.53;;
45326;SDS011;31062;49.678;24.560;2022-07-23T10:02:20;8.38;;;5.65;;
45326;SDS011;31062;49.678;24.560;2022-07-23T10:08:40;12.23;;;5.85;;
45326;SDS011;31062;49.678;24.560;2022-07-23T10:12:10;6.90;;;5.75;;
45326;SDS011;31062;49.678;24.560;2022-07-23T10:15:14;7.80;;;5.82;;
45326;SDS011;31062;49.678;24.560;2022-07-23T10:18:00;11.15;;;5.32;;
45326;SDS011;31062;49.678;24.560;2022-07-23T10:20:47;10.10;;;5.32;;
45326;SDS011;31062;49.678;24.560;2022-07-23T10:23:35;10.82;;;5.30;;
45326;SDS011;31062;49.678;24.560;2022-07-23T10:30:01;8.90;;;5.53;;
45326;SDS011;31062;49.678;24.560;2022-07-23T10:32:56;10.18;;;5.60;;
45326;SDS011;31062;49.678;24.560;2022-07-23T10:36:12;10.48;;;5.63;;
45326;SDS011;31062;49.678;24.560;2022-07-23T10:42:10;10.05;;;5.95;;
45326;SDS011;31062;49.678;24.560;2022-07-23T10:45:00;9.55;;;5.50;;
45326;SDS011;31062;49.678;24.560;2022-07-23T10:47:45;11.45;;;5.47;;
45326;SDS011;31062;49.678;24.560;2022-07-23T10:50:31;7.13;;;5.95;;
45326;SDS011;31062;49.678;24.560;2022-07-23T10:53:19;8.68;;;6.03;;
45326;SDS011;31062;49.678;24.560;2022-07-23T10:56:05;8.50;;;5.30;;
45326;SDS011;31062;49.678;24.560;2022-07-23T10:58:50;8.43;;;5.25;;
45326;SDS011;31062;49.678;24.560;2022-07-23T11:01:38;10.88;;;6.18;;
45326;SDS011;31062;49.678;24.560;2022-07-23T11:04:47;8.57;;;5.68;;
45326;SDS011;31062;49.678;24.560;2022-07-23T11:07:39;9.75;;;5.63;;
45326;SDS011;31062;49.678;24.560;2022-07-23T11:13:48;9.50;;;5.50;;
45326;SDS011;31062;49.678;24.560;2022-07-23T11:16:41;7.18;;;5.88;;
45326;SDS011;31062;49.678;24.560;2022-07-23T11:19:42;8.43;;;5.82;;
45326;SDS011;31062;49.678;24.560;2022-07-23T11:22:57;10.65;;;5.93;;
45326;SDS011;31062;49.678;24.560;2022-07-23T11:25:44;12.73;;;5.70;;
45326;SDS011;31062;49.678;24.560;2022-07-23T11:28:30;8.02;;;5.95;;
45326;SDS011;31062;49.678;24.560;2022-07-23T11:31:19;6.82;;;5.35;;
45326;SDS011;31062;49.678;24.560;2022-07-23T11:37:35;9.57;;;5.70;;
45326;SDS011;31062;49.678;24.560;2022-07-23T11:40:22;8.68;;;6.32;;
45326;SDS011;31062;49.678;24.560;2022-07-23T11:43:08;9.85;;;5.85;;
45326;SDS011;31062;49.678;24.560;2022-07-23T11:45:58;6.40;;;5.53;;
45326;SDS011;31062;49.678;24.560;2022-07-23T11:48:45;10.27;;;6.55;;
45326;SDS011;31062;49.678;24.560;2022-07-23T11:51:30;8.13;;;6.05;;
45326;SDS011;31062;49.678;24.560;2022-07-23T11:54:17;10.25;;;6.45;;
45326;SDS011;31062;49.678;24.560;2022-07-23T11:57:03;8.25;;;5.32;;
45326;SDS011;31062;49.678;24.560;2022-07-23T11:59:50;11.25;;;5.68;;
45326;SDS011;31062;49.678;24.560;2022-07-23T12:02:42;12.00;;;5.72;;
45326;SDS011;31062;49.678;24.560;2022-07-23T12:05:30;8.02;;;5.90;;
45326;SDS011;31062;49.678;24.560;2022-07-23T12:08:17;9.18;;;6.32;;
45326;SDS011;31062;49.678;24.560;2022-07-23T12:11:03;14.02;;;6.38;;
45326;SDS011;31062;49.678;24.560;2022-07-23T12:13:57;10.25;;;5.88;;
45326;SDS011;31062;49.678;24.560;2022-07-23T12:16:43;11.02;;;5.95;;
45326;SDS011;31062;49.678;24.560;2022-07-23T12:19:29;11.07;;;5.47;;
45326;SDS011;31062;49.678;24.560;2022-07-23T12:22:15;9.07;;;5.57;;
45326;SDS011;31062;49.678;24.560;2022-07-23T12:25:03;10.00;;;5.95;;
45326;SDS011;31062;49.678;24.560;2022-07-23T12:28:00;7.53;;;5.82;;
45326;SDS011;31062;49.678;24.560;2022-07-23T12:30:54;6.47;;;4.90;;
45326;SDS011;31062;49.678;24.560;2022-07-23T12:33:41;7.75;;;5.65;;
45326;SDS011;31062;49.678;24.560;2022-07-23T12:36:36;8.40;;;5.60;;
45326;SDS011;31062;49.678;24.560;2022-07-23T12:39:31;6.00;;;4.97;;
45326;SDS011;31062;49.678;24.560;2022-07-23T12:42:17;6.20;;;5.15;;
45326;SDS011;31062;49.678;24.560;2022-07-23T12:45:05;9.23;;;5.22;;
45326;SDS011;31062;49.678;24.560;2022-07-23T12:50:47;10.52;;;5.13;;
45326;SDS011;31062;49.678;24.560;2022-07-23T12:53:37;7.15;;;4.90;;
45326;SDS011;31062;49.678;24.560;2022-07-23T12:56:29;7.57;;;5.20;;
45326;SDS011;31062;49.678;24.560;2022-07-23T12:59:16;7.45;;;5.32;;
45326;SDS011;31062;49.678;24.560;2022-07-23T13:02:03;10.43;;;5.72;;
45326;SDS011;31062;49.678;24.560;2022-07-23T13:04:48;7.18;;;5.40;;
45326;SDS011;31062;49.678;24.560;2022-07-23T13:07:33;9.52;;;5.03;;
45326;SDS011;31062;49.678;24.560;2022-07-23T13:10:19;11.77;;;6.43;;
45326;SDS011;31062;49.678;24.560;2022-07-23T13:13:10;8.05;;;5.07;;
45326;SDS011;31062;49.678;24.560;2022-07-23T13:16:00;10.23;;;5.43;;
45326;SDS011;31062;49.678;24.560;2022-07-23T13:18:55;6.07;;;5.03;;
45326;SDS011;31062;49.678;24.560;2022-07-23T13:21:44;9.95;;;5.47;;
45326;SDS011;31062;49.678;24.560;2022-07-23T13:24:30;11.65;;;5.47;;
45326;SDS011;31062;49.678;24.560;2022-07-23T13:27:15;6.50;;;5.53;;
45326;SDS011;31062;49.678;24.560;2022-07-23T13:30:01;13.57;;;5.45;;
45326;SDS011;31062;49.678;24.560;2022-07-23T13:32:47;8.88;;;5.47;;
45326;SDS011;31062;49.678;24.560;2022-07-23T13:35:34;7.25;;;5.97;;
45326;SDS011;31062;49.678;24.560;2022-07-23T13:38:21;6.20;;;5.55;;
45326;SDS011;31062;49.678;24.560;2022-07-23T13:41:07;8.63;;;5.32;;
45326;SDS011;31062;49.678;24.560;2022-07-23T13:43:56;7.40;;;5.30;;
45326;SDS011;31062;49.678;24.560;2022-07-23T13:46:43;6.15;;;5.45;;
45326;SDS011;31062;49.678;24.560;2022-07-23T13:49:29;9.23;;;6.07;;
45326;SDS011;31062;49.678;24.560;2022-07-23T13:52:14;8.68;;;5.78;;
45326;SDS011;31062;49.678;24.560;2022-07-23T13:55:01;7.90;;;5.57;;
45326;SDS011;31062;49.678;24.560;2022-07-23T13:57:49;9.70;;;5.82;;
45326;SDS011;31062;49.678;24.560;2022-07-23T14:00:36;7.18;;;6.18;;
45326;SDS011;31062;49.678;24.560;2022-07-23T14:03:37;9.13;;;6.00;;
45326;SDS011;31062;49.678;24.560;2022-07-23T14:06:23;19.30;;;6.45;;
45326;SDS011;31062;49.678;24.560;2022-07-23T14:09:17;6.68;;;5.32;;
45326;SDS011;31062;49.678;24.560;2022-07-23T14:12:03;6.75;;;5.55;;
45326;SDS011;31062;49.678;24.560;2022-07-23T14:14:49;10.30;;;4.88;;
45326;SDS011;31062;49.678;24.560;2022-07-23T14:17:36;12.00;;;5.60;;
45326;SDS011;31062;49.678;24.560;2022-07-23T14:20:24;6.40;;;5.45;;
45326;SDS011;31062;49.678;24.560;2022-07-23T14:23:10;10.40;;;6.00;;
45326;SDS011;31062;49.678;24.560;2022-07-23T14:25:58;12.90;;;6.25;;
45326;SDS011;31062;49.678;24.560;2022-07-23T14:28:44;9.48;;;5.63;;
45326;SDS011;31062;49.678;24.560;2022-07-23T14:31:33;9.70;;;6.60;;
45326;SDS011;31062;49.678;24.560;2022-07-23T14:34:19;7.40;;;6.07;;
45326;SDS011;31062;49.678;24.560;2022-07-23T14:37:12;7.38;;;5.68;;
45326;SDS011;31062;49.678;24.560;2022-07-23T14:39:59;12.18;;;5.63;;
45326;SDS011;31062;49.678;24.560;2022-07-23T14:42:46;12.88;;;5.72;;
45326;SDS011;31062;49.678;24.560;2022-07-23T14:45:31;7.45;;;5.55;;
45326;SDS011;31062;49.678;24.560;2022-07-23T14:48:18;10.15;;;6.38;;
45326;SDS011;31062;49.678;24.560;2022-07-23T14:51:06;8.07;;;5.70;;
45326;SDS011;31062;49.678;24.560;2022-07-23T14:53:51;10.00;;;5.47;;
45326;SDS011;31062;49.678;24.560;2022-07-23T14:56:36;8.45;;;5.75;;
45326;SDS011;31062;49.678;24.560;2022-07-23T14:59:22;7.50;;;5.97;;
45326;SDS011;31062;49.678;24.560;2022-07-23T15:02:10;5.93;;;5.15;;
45326;SDS011;31062;49.678;24.560;2022-07-23T15:04:57;6.70;;;5.60;;
45326;SDS011;31062;49.678;24.560;2022-07-23T15:07:46;7.38;;;5.88;;
45326;SDS011;31062;49.678;24.560;2022-07-23T15:10:33;10.75;;;5.57;;
45326;SDS011;31062;49.678;24.560;2022-07-23T15:13:18;7.65;;;5.60;;
45326;SDS011;31062;49.678;24.560;2022-07-23T15:16:04;8.52;;;5.80;;
45326;SDS011;31062;49.678;24.560;2022-07-23T15:18:52;9.45;;;6.65;;
45326;SDS011;31062;49.678;24.560;2022-07-23T15:21:38;9.50;;;6.63;;
45326;SDS011;31062;49.678;24.560;2022-07-23T15:24:33;8.95;;;5.50;;
45326;SDS011;31062;49.678;24.560;2022-07-23T15:27:18;9.13;;;5.18;;
45326;SDS011;31062;49.678;24.560;2022-07-23T15:30:04;10.68;;;5.70;;
45326;SDS011;31062;49.678;24.560;2022-07-23T15:32:52;8.60;;;5.88;;
45326;SDS011;31062;49.678;24.560;2022-07-23T15:35:38;9.93;;;5.85;;
45326;SDS011;31062;49.678;24.560;2022-07-23T15:38:24;6.55;;;5.07;;
45326;SDS011;31062;49.678;24.560;2022-07-23T15:41:10;8.65;;;6.20;;
45326;SDS011;31062;49.678;24.560;2022-07-23T15:43:55;5.05;;;4.57;;
45326;SDS011;31062;49.678;24.560;2022-07-23T15:46:41;7.63;;;5.47;;
45326;SDS011;31062;49.678;24.560;2022-07-23T15:49:27;6.03;;;5.15;;
45326;SDS011;31062;49.678;24.560;2022-07-23T15:52:13;9.70;;;6.07;;
45326;SDS011;31062;49.678;24.560;2022-07-23T15:54:59;5.97;;;5.40;;
45326;SDS011;31062;49.678;24.560;2022-07-23T15:57:44;13.60;;;9.60;;
45326;SDS011;31062;49.678;24.560;2022-07-23T16:00:30;10.50;;;8.45;;
45326;SDS011;31062;49.678;24.560;2022-07-23T16:03:15;13.65;;;9.10;;
45326;SDS011;31062;49.678;24.560;2022-07-23T16:06:01;9.27;;;7.45;;
45326;SDS011;31062;49.678;24.560;2022-07-23T16:08:57;12.68;;;7.25;;
45326;SDS011;31062;49.678;24.560;2022-07-23T16:11:49;7.93;;;7.10;;
45326;SDS011;31062;49.678;24.560;2022-07-23T16:14:34;9.00;;;6.40;;
45326;SDS011;31062;49.678;24.560;2022-07-23T16:17:20;7.22;;;6.40;;
45326;SDS011;31062;49.678;24.560;2022-07-23T16:20:05;11.30;;;6.30;;
45326;SDS011;31062;49.678;24.560;2022-07-23T16:22:54;11.85;;;6.45;;
45326;SDS011;31062;49.678;24.560;2022-07-23T16:25:39;11.80;;;6.00;;
45326;SDS011;31062;49.678;24.560;2022-07-23T16:28:25;7.97;;;6.00;;
45326;SDS011;31062;49.678;24.560;2022-07-23T16:31:10;7.30;;;6.07;;
45326;SDS011;31062;49.678;24.560;2022-07-23T16:33:56;12.30;;;6.32;;
45326;SDS011;31062;49.678;24.560;2022-07-23T16:36:41;6.90;;;6.20;;
45326;SDS011;31062;49.678;24.560;2022-07-23T16:39:27;9.50;;;7.03;;
45326;SDS011;31062;49.678;24.560;2022-07-23T16:42:13;11.23;;;8.25;;
45326;SDS011;31062;49.678;24.560;2022-07-23T16:44:58;13.45;;;7.00;;
45326;SDS011;31062;49.678;24.560;2022-07-23T16:47:52;17.95;;;7.63;;
45326;SDS011;31062;49.678;24.560;2022-07-23T16:50:37;15.18;;;6.57;;
45326;SDS011;31062;49.678;24.560;2022-07-23T16:53:23;19.08;;;8.23;;
45326;SDS011;31062;49.678;24.560;2022-07-23T16:56:08;26.73;;;9.43;;
45326;SDS011;31062;49.678;24.560;2022-07-23T16:58:54;23.45;;;11.95;;